EDHI/XFW METAR and TAF weather

Enter ICAO airport designator
Station Type Date Time Source
EDHI METAR 2022/11/30 11:20 UTC NOAA

EDHI 301120Z 08005KT 050V110 6000 OVC008 05/05 Q1024


Station Type Date Time Source
EDHI Decoded METAR 2022/11/30 11:20 UTC NOAA

Hamburg-Finkenwerder, Germany (EDHI) 53-32N 009-50E 13M
Nov 30, 2022 - 06:20 AM EST / 2022.11.30 1120 UTC
Wind: from the E (080 degrees) at 6 MPH (5 KT) (direction variable):0
Visibility: 3 mile(s):0
Sky conditions: overcast
Temperature: 41 F (5 C)
Dew Point: 41 F (5 C)
Relative Humidity: 100%
Pressure (altimeter): 30.24 in. Hg (1024 hPa)
ob: EDHI 301120Z 08005KT 050V110 6000 OVC008 05/05 Q1024
cycle: 11

Station Type Date Time Source
EDHI TAF 2010/02/22 14:20 UTC NOAA

METAR EDHI 221420Z 17005KT 9999 BKN030 05/02 Q0989

Example: see airport list